createdAt,value
2023-04-05T00:00:01.073Z,2.30
2023-04-05T00:01:00.888Z,2.26
2023-04-05T00:02:02.003Z,2.28
2023-04-05T00:03:01.027Z,2.26
2023-04-05T00:04:00.900Z,2.28
2023-04-05T00:05:00.852Z,2.28
2023-04-05T00:06:00.647Z,2.22
2023-04-05T00:07:00.809Z,2.22
2023-04-05T00:08:00.594Z,2.19
2023-04-05T00:09:00.506Z,2.16
2023-04-05T00:10:01.853Z,2.19
2023-04-05T00:11:00.410Z,2.22
2023-04-05T00:12:00.643Z,2.28
2023-04-05T00:13:00.309Z,2.22
2023-04-05T00:14:00.353Z,2.14
2023-04-05T00:15:00.237Z,2.22
2023-04-05T00:16:00.409Z,2.23
2023-04-05T00:17:00.110Z,2.21
2023-04-05T00:18:00.290Z,2.23
2023-04-05T00:19:00.014Z,2.23
2023-04-05T00:20:00.198Z,2.23
2023-04-05T00:20:59.949Z,2.25
2023-04-05T00:22:00.427Z,2.30
2023-04-05T00:23:00.005Z,2.22
2023-04-05T00:23:59.782Z,2.23
2023-04-05T00:25:00.027Z,2.22
2023-04-05T00:25:59.712Z,2.23
2023-04-05T00:26:59.739Z,2.19
2023-04-05T00:27:59.839Z,2.22
2023-04-05T00:28:59.527Z,2.21
2023-04-05T00:29:59.651Z,2.03
2023-04-05T00:30:59.426Z,2.25
2023-04-05T00:31:59.732Z,2.18
2023-04-05T00:32:59.417Z,2.22
2023-04-05T00:34:00.708Z,2.19
2023-04-05T00:34:59.236Z,2.23
2023-04-05T00:35:59.507Z,2.22
2023-04-05T00:36:59.136Z,2.28
2023-04-05T00:37:59.299Z,2.21
2023-04-05T00:38:59.039Z,2.26
2023-04-05T00:40:00.141Z,2.25
2023-04-05T00:40:59.187Z,2.32
2023-04-05T00:41:59.131Z,2.30
2023-04-05T00:42:58.845Z,2.22
2023-04-05T00:43:58.936Z,2.25
2023-04-05T00:44:58.745Z,2.25
2023-04-05T00:45:58.959Z,2.28
2023-04-05T00:46:58.648Z,2.28
2023-04-05T00:47:58.765Z,2.32
2023-04-05T00:48:58.554Z,2.37
2023-04-05T00:49:59.795Z,2.32
2023-04-05T00:50:59.597Z,2.34
2023-04-05T00:51:59.671Z,2.37
2023-04-05T00:52:58.592Z,2.40
2023-04-05T00:53:58.313Z,2.40
2023-04-05T00:54:58.406Z,2.46
2023-04-05T00:55:58.218Z,2.43
2023-04-05T00:56:58.193Z,2.43
2023-04-05T00:57:59.446Z,2.46
2023-04-05T00:58:58.090Z,2.59
2023-04-05T00:59:58.235Z,2.51
2023-04-05T01:00:57.999Z,2.61
2023-04-05T01:01:59.066Z,2.61
2023-04-05T01:02:59.084Z,2.64
2023-04-05T01:03:58.100Z,2.69
2023-04-05T01:04:58.068Z,2.68
2023-04-05T01:05:57.732Z,2.77
2023-04-05T01:06:57.888Z,2.90
2023-04-05T01:07:57.630Z,2.87
2023-04-05T01:08:57.578Z,2.83
2023-04-05T01:09:57.692Z,2.87
2023-04-05T01:10:57.484Z,2.88
2023-04-05T01:11:57.705Z,2.93
2023-04-05T01:12:57.389Z,2.97
2023-04-05T01:13:57.506Z,2.94
2023-04-05T01:14:57.618Z,2.91
2023-04-05T01:15:57.568Z,2.93
2023-04-05T01:16:57.192Z,2.97
2023-04-05T01:17:57.484Z,3.05
2023-04-05T01:18:57.101Z,3.00
2023-04-05T01:19:57.288Z,2.98
2023-04-05T01:20:56.997Z,3.05
2023-04-05T01:22:18.170Z,3.08
2023-04-05T01:22:56.909Z,3.05
2023-04-05T01:23:57.255Z,3.00
2023-04-05T01:24:56.801Z,3.06
2023-04-05T01:25:56.881Z,3.00
2023-04-05T01:26:56.724Z,3.08
2023-04-05T01:27:56.797Z,2.98
2023-04-05T01:28:56.612Z,3.09
2023-04-05T01:29:56.913Z,3.19
2023-04-05T01:30:56.536Z,3.18
2023-04-05T01:31:56.732Z,3.19
2023-04-05T01:32:56.449Z,3.24
2023-04-05T01:33:56.532Z,3.24
2023-04-05T01:34:56.332Z,3.36
2023-04-05T01:35:56.331Z,3.15
2023-04-05T01:36:56.354Z,3.19
2023-04-05T01:37:56.178Z,3.30
2023-04-05T01:38:56.134Z,3.29
2023-04-05T01:39:56.271Z,3.29
2023-04-05T01:40:56.044Z,3.30
2023-04-05T01:41:57.306Z,3.33
2023-04-05T01:42:55.938Z,3.41
2023-04-05T01:43:56.218Z,3.34
2023-04-05T01:44:55.844Z,3.34
2023-04-05T01:45:56.927Z,3.50
2023-04-05T01:46:55.764Z,3.55
2023-04-05T01:47:56.193Z,3.53
2023-04-05T01:48:55.654Z,3.59
2023-04-05T01:49:55.739Z,3.66
2023-04-05T01:50:55.567Z,3.70
2023-04-05T01:51:55.764Z,3.74
2023-04-05T01:52:55.455Z,3.68
2023-04-05T01:53:55.585Z,3.77
2023-04-05T01:54:55.364Z,3.71
2023-04-05T01:55:55.464Z,3.73
2023-04-05T01:56:55.261Z,3.76
2023-04-05T01:57:55.485Z,3.71
2023-04-05T01:58:55.192Z,3.73
2023-04-05T01:59:55.502Z,3.66
2023-04-05T02:00:55.089Z,3.68
2023-04-05T02:01:56.747Z,3.64
2023-04-05T02:02:55.057Z,3.66
2023-04-05T02:03:55.270Z,3.67
2023-04-05T02:04:54.876Z,3.63
2023-04-05T02:05:55.131Z,3.63
2023-04-05T02:06:54.788Z,3.67
2023-04-05T02:07:55.962Z,3.63
2023-04-05T02:08:54.707Z,3.63
2023-04-05T02:09:54.855Z,3.66
2023-04-05T02:10:54.590Z,3.59
2023-04-05T02:11:54.582Z,3.48
2023-04-05T02:12:54.671Z,3.46
2023-04-05T02:13:54.446Z,3.46
2023-04-05T02:14:54.589Z,3.52
2023-04-05T02:15:54.401Z,3.36
2023-04-05T02:16:55.621Z,3.36
2023-04-05T02:17:54.424Z,3.34
2023-04-05T02:18:54.512Z,3.34
2023-04-05T02:19:54.161Z,3.41
2023-04-05T02:20:54.232Z,3.46
2023-04-05T02:21:54.063Z,3.50
2023-04-05T02:22:54.266Z,3.53
2023-04-05T02:23:53.960Z,3.52
2023-04-05T02:24:54.152Z,3.53
2023-04-05T02:25:53.869Z,3.59
2023-04-05T02:26:53.963Z,3.58
2023-04-05T02:27:53.982Z,3.59
2023-04-05T02:28:53.779Z,3.68
2023-04-05T02:29:53.819Z,3.63
2023-04-05T02:30:53.779Z,3.66
2023-04-05T02:31:53.856Z,3.66
2023-04-05T02:32:53.570Z,3.63
2023-04-05T02:33:53.599Z,3.59
2023-04-05T02:34:53.429Z,3.63
2023-04-05T02:35:53.702Z,3.66
2023-04-05T02:36:53.335Z,3.59
2023-04-05T02:37:53.486Z,3.63
2023-04-05T02:38:53.241Z,3.59
2023-04-05T02:39:53.230Z,3.58
2023-04-05T02:40:53.154Z,3.63
2023-04-05T02:41:53.159Z,3.61
2023-04-05T02:42:53.049Z,3.50
2023-04-05T02:43:53.173Z,3.52
2023-04-05T02:44:52.958Z,3.52
2023-04-05T02:45:52.994Z,3.55
2023-04-05T02:46:52.860Z,3.49
2023-04-05T02:47:53.012Z,3.58
2023-04-05T02:48:52.758Z,3.61
2023-04-05T02:49:53.868Z,3.56
2023-04-05T02:50:52.660Z,3.61
2023-04-05T02:51:54.650Z,3.58
2023-04-05T02:52:52.606Z,3.61
2023-04-05T02:53:53.550Z,3.68
2023-04-05T02:54:52.465Z,3.63
2023-04-05T02:55:52.421Z,3.66
2023-04-05T02:56:52.418Z,3.59
2023-04-05T02:57:53.366Z,3.68
2023-04-05T02:58:52.530Z,3.68
2023-04-05T02:59:52.250Z,3.67
2023-04-05T03:00:52.204Z,3.70
2023-04-05T03:01:52.132Z,3.64
2023-04-05T03:02:52.194Z,3.68
2023-04-05T03:03:53.250Z,3.73
2023-04-05T03:04:52.015Z,3.73
2023-04-05T03:05:52.102Z,3.77
2023-04-05T03:06:51.886Z,3.73
2023-04-05T03:07:51.842Z,3.73
2023-04-05T03:08:51.788Z,3.85
2023-04-05T03:09:51.812Z,3.78
2023-04-05T03:10:51.780Z,3.77
2023-04-05T03:11:51.726Z,3.85
2023-04-05T03:12:51.635Z,3.94
2023-04-05T03:13:51.555Z,3.88
2023-04-05T03:14:51.503Z,3.91
2023-04-05T03:15:51.553Z,3.84
2023-04-05T03:16:51.474Z,3.92
2023-04-05T03:17:51.580Z,3.77
2023-04-05T03:18:51.310Z,3.74
2023-04-05T03:19:51.253Z,3.82
2023-04-05T03:20:51.269Z,3.81
2023-04-05T03:21:51.389Z,3.81
2023-04-05T03:22:51.546Z,3.78
2023-04-05T03:23:51.199Z,3.78
2023-04-05T03:24:51.030Z,3.74
2023-04-05T03:25:50.969Z,3.78
2023-04-05T03:26:50.918Z,3.82
2023-04-05T03:27:50.890Z,3.77
2023-04-05T03:28:51.239Z,3.74
2023-04-05T03:29:50.781Z,3.82
2023-04-05T03:30:50.843Z,3.71
2023-04-05T03:31:50.825Z,3.74
2023-04-05T03:32:50.677Z,3.85
2023-04-05T03:33:50.665Z,3.78
2023-04-05T03:34:50.566Z,3.77
2023-04-05T03:35:50.683Z,3.82
2023-04-05T03:36:50.457Z,3.74
2023-04-05T03:37:50.392Z,3.74
2023-04-05T03:38:50.362Z,3.78
2023-04-05T03:39:50.508Z,3.81
2023-04-05T03:40:50.470Z,3.78
2023-04-05T03:41:50.415Z,3.74
2023-04-05T03:42:50.153Z,3.73
2023-04-05T03:43:50.104Z,3.71
2023-04-05T03:44:50.226Z,3.73
2023-04-05T03:45:50.067Z,3.67
2023-04-05T03:46:50.045Z,3.68
2023-04-05T03:47:50.150Z,3.55
2023-04-05T03:48:51.093Z,3.59
2023-04-05T03:49:49.832Z,3.58
2023-04-05T03:50:49.965Z,3.61
2023-04-05T03:51:49.723Z,3.48
2023-04-05T03:52:49.783Z,3.40
2023-04-05T03:53:49.619Z,3.37
2023-04-05T03:54:51.636Z,3.33
2023-04-05T03:55:49.603Z,3.37
2023-04-05T03:56:49.703Z,3.26
2023-04-05T03:57:49.429Z,3.22
2023-04-05T03:58:50.747Z,3.27
2023-04-05T03:59:49.350Z,3.26
2023-04-05T04:00:49.537Z,3.22
2023-04-05T04:01:49.268Z,3.08
2023-04-05T04:02:49.359Z,3.18
2023-04-05T04:03:49.136Z,3.11
2023-04-05T04:04:49.589Z,3.08
2023-04-05T04:05:49.074Z,3.03
2023-04-05T04:06:49.159Z,2.91
2023-04-05T04:07:48.957Z,2.94
2023-04-05T04:08:48.967Z,2.94
2023-04-05T04:09:48.841Z,2.85
2023-04-05T04:10:48.973Z,2.87
2023-04-05T04:11:49.811Z,2.88
2023-04-05T04:12:48.699Z,2.87
2023-04-05T04:13:48.645Z,2.75
2023-04-05T04:14:49.730Z,2.70
2023-04-05T04:15:48.554Z,2.64
2023-04-05T04:16:48.862Z,2.68
2023-04-05T04:17:48.524Z,2.65
2023-04-05T04:18:48.633Z,2.61
2023-04-05T04:19:48.354Z,2.54
2023-04-05T04:20:48.442Z,2.43
2023-04-05T04:21:48.270Z,2.46
2023-04-05T04:22:48.243Z,2.46
2023-04-05T04:23:48.470Z,2.32
2023-04-05T04:24:48.163Z,2.33
2023-04-05T04:25:48.278Z,2.30
2023-04-05T04:26:48.031Z,2.33
2023-04-05T04:27:48.096Z,2.30
2023-04-05T04:28:47.922Z,2.30
2023-04-05T04:29:48.026Z,2.28
2023-04-05T04:30:48.058Z,2.18
2023-04-05T04:31:48.051Z,2.14
2023-04-05T04:32:47.847Z,2.26
2023-04-05T04:33:47.927Z,2.18
2023-04-05T04:34:47.638Z,2.21
2023-04-05T04:35:47.753Z,2.21
2023-04-05T04:36:47.690Z,2.14
2023-04-05T04:37:47.673Z,2.14
2023-04-05T04:38:47.433Z,2.08
2023-04-05T04:39:47.451Z,2.01
2023-04-05T04:40:47.378Z,1.98
2023-04-05T04:41:47.468Z,1.89
2023-04-05T04:42:47.273Z,1.85
2023-04-05T04:43:47.282Z,1.88
2023-04-05T04:44:47.238Z,1.85
2023-04-05T04:45:48.528Z,1.84
2023-04-05T04:46:47.037Z,1.81
2023-04-05T04:47:47.191Z,1.79
2023-04-05T04:48:46.941Z,1.78
2023-04-05T04:49:47.123Z,1.78
2023-04-05T04:50:46.872Z,1.78
2023-04-05T04:51:47.031Z,1.66
2023-04-05T04:52:46.750Z,1.70
2023-04-05T04:53:48.155Z,1.71
2023-04-05T04:54:46.856Z,1.67
2023-04-05T04:55:46.603Z,1.66
2023-04-05T04:56:46.758Z,1.66
2023-04-05T04:57:46.504Z,1.60
2023-04-05T04:58:46.662Z,1.58
2023-04-05T04:59:46.425Z,1.66
2023-04-05T05:00:46.381Z,1.64
2023-04-05T05:01:46.302Z,1.66
2023-04-05T05:02:47.755Z,1.67
2023-04-05T05:03:46.236Z,1.64
2023-04-05T05:04:46.324Z,1.66
2023-04-05T05:05:46.118Z,1.66
2023-04-05T05:06:46.063Z,1.64
2023-04-05T05:07:46.022Z,1.70
2023-04-05T05:08:47.168Z,1.68
2023-04-05T05:09:45.922Z,1.61
2023-04-05T05:10:45.946Z,1.58
2023-04-05T05:11:45.813Z,1.57
2023-04-05T05:12:45.794Z,1.46
2023-04-05T05:13:48.546Z,1.63
2023-04-05T05:14:47.116Z,1.58
2023-04-05T05:15:45.624Z,1.49
2023-04-05T05:16:45.723Z,1.52
2023-04-05T05:17:45.613Z,1.49
2023-04-05T05:18:45.476Z,1.49
2023-04-05T05:19:45.423Z,1.64
2023-04-05T05:20:45.615Z,1.58
2023-04-05T05:21:46.497Z,1.50
2023-04-05T05:22:46.473Z,1.61
2023-04-05T05:23:45.235Z,1.63
2023-04-05T05:24:45.186Z,1.64
2023-04-05T05:25:45.136Z,1.60
2023-04-05T05:26:45.353Z,1.63
2023-04-05T05:27:45.039Z,1.66
2023-04-05T05:28:45.361Z,1.74
2023-04-05T05:29:44.938Z,1.71
2023-04-05T05:30:45.028Z,1.75
2023-04-05T05:31:47.030Z,1.84
2023-04-05T05:32:44.812Z,1.74
2023-04-05T05:33:44.998Z,1.75
2023-04-05T05:34:44.690Z,1.78
2023-04-05T05:35:46.879Z,1.75
2023-04-05T05:36:44.810Z,1.78
2023-04-05T05:37:44.542Z,1.75
2023-04-05T05:38:44.737Z,1.75
2023-04-05T05:39:44.491Z,1.79
2023-04-05T05:40:44.633Z,1.82
2023-04-05T05:41:44.341Z,1.79
2023-04-05T05:42:44.295Z,1.81
2023-04-05T05:43:44.258Z,1.75
2023-04-05T05:44:44.356Z,1.74
2023-04-05T05:45:44.424Z,1.79
2023-04-05T05:46:44.198Z,1.78
2023-04-05T05:47:44.091Z,1.75
2023-04-05T05:48:44.001Z,1.79
2023-04-05T05:49:43.952Z,1.76
2023-04-05T05:50:45.116Z,1.84
2023-04-05T05:51:43.891Z,1.78
2023-04-05T05:52:43.910Z,1.81
2023-04-05T05:53:43.755Z,1.78
2023-04-05T05:54:43.711Z,1.70
2023-04-05T05:55:43.668Z,1.78
2023-04-05T05:56:43.733Z,1.76
2023-04-05T05:57:43.581Z,1.76
2023-04-05T05:58:43.942Z,1.82
2023-04-05T05:59:43.460Z,1.84
2023-04-05T06:03:48.942Z,1.78
2023-04-05T06:04:47.398Z,1.78
2023-04-05T06:05:47.477Z,1.67
2023-04-05T06:06:47.489Z,1.71
2023-04-05T06:07:47.251Z,1.71
2023-04-05T06:08:48.318Z,1.78
2023-04-05T06:09:47.122Z,1.81
2023-04-05T06:10:47.307Z,1.74
2023-04-05T06:11:55.982Z,1.79
2023-04-05T06:12:47.285Z,1.75
2023-04-05T06:13:47.030Z,1.81
2023-04-05T06:14:46.901Z,1.82
2023-04-05T06:15:47.040Z,1.86
2023-04-05T06:16:46.902Z,2.01
2023-04-05T06:17:48.007Z,2.00
2023-04-05T06:18:46.677Z,2.01
2023-04-05T06:19:46.628Z,2.05
2023-04-05T06:20:46.772Z,2.12
2023-04-05T06:21:46.529Z,2.21
2023-04-05T06:22:46.596Z,2.16
2023-04-05T06:23:46.442Z,2.22
2023-04-05T06:24:46.496Z,2.32
2023-04-05T06:25:46.536Z,2.25
2023-04-05T06:26:48.352Z,2.26
2023-04-05T06:27:46.468Z,2.33
2023-04-05T06:28:46.420Z,2.37
2023-04-05T06:29:46.287Z,2.41
2023-04-05T06:30:46.228Z,2.40
2023-04-05T06:31:46.290Z,2.50
2023-04-05T06:32:45.999Z,2.46
2023-04-05T06:33:46.157Z,2.47
2023-04-05T06:34:45.890Z,2.58
2023-04-05T06:35:47.126Z,2.59
2023-04-05T06:36:45.793Z,2.55
2023-04-05T06:37:45.919Z,2.58
2023-04-05T06:38:45.879Z,2.55
2023-04-05T06:39:45.649Z,2.64
2023-04-05T06:40:45.683Z,2.64
2023-04-05T06:41:45.556Z,2.70
2023-04-05T06:43:06.796Z,2.70
2023-04-05T06:43:45.449Z,2.65
2023-04-05T06:44:46.536Z,2.73
2023-04-05T06:45:45.361Z,2.72
2023-04-05T06:46:45.524Z,2.85
2023-04-05T06:47:45.292Z,2.83
2023-04-05T06:48:45.450Z,2.93
2023-04-05T06:49:45.347Z,2.90
2023-04-05T06:50:45.109Z,2.97
2023-04-05T06:52:06.149Z,2.97
2023-04-05T06:52:45.342Z,3.16
2023-04-05T06:53:45.067Z,3.21
2023-04-05T06:54:44.917Z,3.27
2023-04-05T06:55:46.102Z,3.31
2023-04-05T06:56:44.820Z,3.31
2023-04-05T06:57:45.914Z,3.34
2023-04-05T06:58:44.768Z,3.43
2023-04-05T06:59:44.804Z,3.55
2023-04-05T07:00:44.630Z,3.61
2023-04-05T07:01:44.868Z,3.66
2023-04-05T07:02:44.566Z,3.77
2023-04-05T07:03:45.650Z,3.92
2023-04-05T07:04:46.695Z,3.92
2023-04-05T07:05:44.536Z,3.94
2023-04-05T07:06:44.338Z,4.03
2023-04-05T07:07:44.559Z,4.12
2023-04-05T07:08:44.263Z,4.18
2023-04-05T07:09:45.401Z,4.30
2023-04-05T07:10:44.153Z,4.38
2023-04-05T07:11:45.605Z,4.43
2023-04-05T07:12:44.149Z,4.56
2023-04-05T07:13:44.185Z,4.52
2023-04-05T07:14:43.980Z,4.63
2023-04-05T07:15:45.042Z,4.64
2023-04-05T07:16:43.856Z,4.60
2023-04-05T07:17:44.122Z,4.64
2023-04-05T07:18:46.230Z,4.70
2023-04-05T07:19:45.999Z,4.87
2023-04-05T07:20:43.737Z,4.83
2023-04-05T07:21:43.731Z,4.74
2023-04-05T07:22:43.617Z,4.87
2023-04-05T07:23:44.782Z,4.89
2023-04-05T07:24:43.478Z,4.94
2023-04-05T07:25:44.587Z,4.97
2023-04-05T07:26:43.382Z,4.95
2023-04-05T07:27:43.583Z,5.01
2023-04-05T07:28:43.425Z,5.19
2023-04-05T07:29:43.384Z,5.19
2023-04-05T07:30:43.317Z,5.23
2023-04-05T07:31:43.271Z,5.12
2023-04-05T07:32:43.113Z,5.19
2023-04-05T07:33:44.183Z,5.28
2023-04-05T07:34:43.025Z,5.46
2023-04-05T07:35:43.141Z,5.40
2023-04-05T07:36:42.923Z,5.55
2023-04-05T07:37:42.862Z,5.56
2023-04-05T07:38:42.811Z,5.58
2023-04-05T07:39:42.944Z,5.51
2023-04-05T07:40:43.168Z,5.52
2023-04-05T07:41:43.389Z,5.47
2023-04-05T07:42:42.620Z,5.49
2023-04-05T07:43:42.583Z,5.38
2023-04-05T07:44:42.646Z,5.47
2023-04-05T07:45:42.588Z,5.46
2023-04-05T07:46:42.471Z,5.49
2023-04-05T07:47:43.672Z,5.49
2023-04-05T07:48:42.345Z,5.52
2023-04-05T07:49:42.305Z,5.41
2023-04-05T07:50:42.775Z,5.44
2023-04-05T07:51:43.443Z,5.47
2023-04-05T07:52:42.173Z,5.44
2023-04-05T07:53:42.330Z,5.49
2023-04-05T07:54:42.088Z,5.44
2023-04-05T07:55:42.005Z,5.46
2023-04-05T07:56:41.974Z,5.69
2023-04-05T07:57:42.056Z,5.69
2023-04-05T07:58:41.868Z,5.62
2023-04-05T07:59:42.351Z,5.56
2023-04-05T08:00:41.983Z,5.55
2023-04-05T08:01:41.726Z,5.44
2023-04-05T08:02:41.775Z,5.67
2023-04-05T08:03:41.958Z,5.58
2023-04-05T08:04:41.608Z,5.73
2023-04-05T08:05:41.748Z,5.69
2023-04-05T08:06:41.605Z,5.69
2023-04-05T08:07:41.619Z,5.65
2023-04-05T08:08:41.410Z,5.72
2023-04-05T08:09:41.638Z,5.79
2023-04-05T08:10:41.504Z,5.76
2023-04-05T08:11:41.659Z,5.79
2023-04-05T08:12:41.214Z,5.84
2023-04-05T08:13:41.159Z,5.90
2023-04-05T08:14:41.121Z,5.81
2023-04-05T08:15:41.168Z,5.74
2023-04-05T08:16:41.269Z,5.74
2023-04-05T08:17:41.205Z,5.88
2023-04-05T08:18:40.919Z,5.90
2023-04-05T08:19:41.107Z,5.99
2023-04-05T08:20:40.963Z,6.05
2023-04-05T08:21:40.896Z,5.94
2023-04-05T08:22:40.968Z,6.05
2023-04-05T08:23:40.908Z,5.98
2023-04-05T08:24:40.768Z,6.10
2023-04-05T08:25:42.545Z,6.06
2023-04-05T08:26:40.545Z,6.12
2023-04-05T08:27:40.740Z,6.20
2023-04-05T08:28:40.529Z,6.26
2023-04-05T08:29:40.543Z,6.31
2023-04-05T08:30:40.564Z,6.34
2023-04-05T08:31:40.604Z,6.43
2023-04-05T08:32:40.292Z,6.44
2023-04-05T08:33:40.239Z,6.52
2023-04-05T08:34:40.584Z,6.60
2023-04-05T08:35:40.144Z,6.71
2023-04-05T08:37:02.302Z,6.77
2023-04-05T08:37:40.032Z,6.75
2023-04-05T08:38:39.981Z,6.82
2023-04-05T08:39:40.118Z,6.90
2023-04-05T08:40:40.166Z,7.08
2023-04-05T08:41:40.944Z,7.15
2023-04-05T08:42:39.788Z,7.33
2023-04-05T08:43:39.939Z,7.40
2023-04-05T08:44:39.700Z,7.62
2023-04-05T08:46:01.076Z,7.75
2023-04-05T08:46:39.642Z,7.93
2023-04-05T08:48:01.756Z,8.21
2023-04-05T08:48:40.545Z,8.45
2023-04-05T08:49:39.811Z,8.52
2023-04-05T08:50:39.722Z,8.68
2023-04-05T08:51:39.421Z,8.84
2023-04-05T08:52:39.702Z,9.12
2023-04-05T08:53:39.304Z,9.22
2023-04-05T08:54:40.436Z,9.44
2023-04-05T08:55:39.219Z,9.51
2023-04-05T08:56:39.178Z,9.74
2023-04-05T08:57:39.185Z,9.88
2023-04-05T08:58:40.354Z,10.03
2023-04-05T08:59:39.106Z,10.34
2023-04-05T09:00:39.317Z,10.49
2023-04-05T09:01:39.028Z,10.59
2023-04-05T09:02:39.068Z,10.89
2023-04-05T09:03:39.334Z,11.13
2023-04-05T09:04:38.969Z,11.53
2023-04-05T09:05:38.812Z,11.77
2023-04-05T09:06:38.989Z,11.97
2023-04-05T09:07:38.723Z,12.30
2023-04-05T09:08:39.932Z,12.65
2023-04-05T09:09:38.653Z,13.02
2023-04-05T09:10:40.000Z,13.50
2023-04-05T09:11:39.805Z,13.80
2023-04-05T09:12:40.771Z,14.15
2023-04-05T09:13:38.486Z,14.56
2023-04-05T09:14:38.653Z,14.87
2023-04-05T09:15:38.404Z,15.15
2023-04-05T09:16:38.725Z,15.37
2023-04-05T09:17:38.372Z,15.17
2023-04-05T09:18:39.488Z,15.47
2023-04-05T09:19:38.259Z,15.66
2023-04-05T09:20:38.515Z,15.92
2023-04-05T09:21:38.174Z,16.25
2023-04-05T09:22:59.589Z,16.09
2023-04-05T09:23:38.118Z,16.24
2023-04-05T09:24:39.344Z,15.90
2023-04-05T09:25:38.020Z,16.26
2023-04-05T09:26:38.111Z,16.73
2023-04-05T09:27:37.949Z,16.82
2023-04-05T09:28:38.160Z,16.80
2023-04-05T09:29:37.878Z,17.37
2023-04-05T09:30:38.157Z,17.69
2023-04-05T09:31:37.820Z,18.08
2023-04-05T09:32:38.048Z,18.28
2023-04-05T09:33:37.720Z,18.57
2023-04-05T09:34:37.986Z,18.94
2023-04-05T09:35:37.680Z,19.17
2023-04-05T09:36:37.770Z,19.64
2023-04-05T09:37:37.581Z,20.11
2023-04-05T09:38:37.795Z,20.56
2023-04-05T09:39:39.029Z,21.04
2023-04-05T09:40:37.464Z,21.10
2023-04-05T09:41:39.549Z,20.48
2023-04-05T09:42:37.392Z,20.46
2023-04-05T09:43:37.515Z,20.39
2023-04-05T09:44:39.655Z,20.40
2023-04-05T09:45:37.460Z,20.56
2023-04-05T09:46:37.991Z,20.82
2023-04-05T09:47:37.294Z,21.05
2023-04-05T09:48:37.349Z,21.35
2023-04-05T09:49:37.143Z,21.35
2023-04-05T09:50:38.472Z,21.29
2023-04-05T09:51:37.274Z,21.38
2023-04-05T09:52:37.274Z,21.59
2023-04-05T09:53:36.990Z,21.99
2023-04-05T09:54:37.078Z,22.22
2023-04-05T09:55:36.923Z,22.53
2023-04-05T09:56:37.272Z,22.18
2023-04-05T09:57:37.156Z,21.94
2023-04-05T09:58:37.003Z,22.36
2023-04-05T09:59:36.821Z,22.62
2023-04-05T10:00:37.024Z,22.78
2023-04-05T10:01:37.647Z,22.95
2023-04-05T10:02:36.984Z,22.92
2023-04-05T10:03:36.730Z,23.08
2023-04-05T10:04:36.760Z,22.84
2023-04-05T10:05:36.571Z,23.07
2023-04-05T10:06:36.702Z,23.11
2023-04-05T10:07:36.509Z,22.76
2023-04-05T10:08:37.591Z,21.94
2023-04-05T10:09:36.462Z,22.30
2023-04-05T10:10:36.551Z,22.21
2023-04-05T10:11:36.494Z,22.67
2023-04-05T10:12:36.324Z,23.16
2023-04-05T10:13:37.423Z,23.28
2023-04-05T10:14:36.267Z,23.59
2023-04-05T10:15:36.414Z,23.94
2023-04-05T10:16:36.245Z,24.11
2023-04-05T10:17:38.481Z,24.10
2023-04-05T10:18:36.118Z,24.43
2023-04-05T10:19:37.266Z,24.34
2023-04-05T10:20:36.065Z,24.48
2023-04-05T10:21:36.050Z,24.53
2023-04-05T10:22:36.011Z,23.64
2023-04-05T10:23:36.058Z,23.37
2023-04-05T10:24:35.916Z,23.29
2023-04-05T10:25:36.088Z,23.34
2023-04-05T10:26:35.850Z,23.52
2023-04-05T10:27:35.897Z,23.63
2023-04-05T10:28:35.880Z,23.91
2023-04-05T10:29:35.903Z,24.11
2023-04-05T10:30:35.714Z,24.00
2023-04-05T10:31:38.384Z,24.04
2023-04-05T10:32:35.805Z,24.10
2023-04-05T10:33:37.461Z,24.00
2023-04-05T10:34:35.666Z,23.71
2023-04-05T10:35:35.839Z,23.54
2023-04-05T10:36:35.590Z,23.36
2023-04-05T10:37:35.659Z,23.64
2023-04-05T10:38:35.493Z,24.10
2023-04-05T10:39:36.484Z,24.32
2023-04-05T10:40:35.587Z,24.68
2023-04-05T10:41:35.515Z,24.79
2023-04-05T10:42:37.427Z,24.77
2023-04-05T10:43:35.286Z,24.58
2023-04-05T10:44:35.412Z,24.40
2023-04-05T10:45:35.861Z,24.00
2023-04-05T10:46:35.420Z,23.94
2023-04-05T10:47:37.746Z,24.11
2023-04-05T10:48:35.103Z,24.43
2023-04-05T10:49:36.277Z,24.65
2023-04-05T10:50:35.053Z,24.93
2023-04-05T10:51:35.043Z,25.37
2023-04-05T10:52:35.094Z,25.37
2023-04-05T10:53:35.014Z,25.18
2023-04-05T10:54:36.081Z,25.58
2023-04-05T10:55:34.860Z,25.55
2023-04-05T10:56:58.013Z,26.15
2023-04-05T10:57:34.791Z,26.37
2023-04-05T10:58:34.820Z,26.63
2023-04-05T10:59:34.773Z,26.79
2023-04-05T11:00:34.795Z,26.83
2023-04-05T11:01:34.958Z,27.11
2023-04-05T11:02:35.855Z,27.34
2023-04-05T11:03:34.718Z,27.08
2023-04-05T11:04:34.590Z,27.26
2023-04-05T11:05:35.730Z,27.37
2023-04-05T11:06:34.636Z,26.67
2023-04-05T11:07:34.499Z,26.44
2023-04-05T11:08:35.476Z,26.30
2023-04-05T11:09:34.401Z,26.07
2023-04-05T11:10:34.523Z,25.93
2023-04-05T11:11:34.341Z,25.92
2023-04-05T11:12:34.476Z,25.83
2023-04-05T11:13:34.273Z,26.07
2023-04-05T11:14:35.330Z,25.73
2023-04-05T11:15:34.251Z,25.93
2023-04-05T11:16:34.199Z,26.11
2023-04-05T11:17:34.219Z,26.31
2023-04-05T11:18:34.319Z,26.36
2023-04-05T11:19:34.080Z,26.64
2023-04-05T11:20:34.130Z,26.42
2023-04-05T11:21:34.029Z,26.26
2023-04-05T11:22:33.978Z,26.42
2023-04-05T11:23:33.966Z,26.60
2023-04-05T11:24:34.639Z,26.34
2023-04-05T11:25:33.877Z,26.48
2023-04-05T11:26:33.962Z,26.41
2023-04-05T11:27:33.815Z,26.04
2023-04-05T11:28:33.811Z,25.77
2023-04-05T11:29:33.751Z,26.06
2023-04-05T11:30:33.791Z,26.42
2023-04-05T11:31:33.722Z,26.64
2023-04-05T11:32:55.026Z,27.00
2023-04-05T11:33:33.616Z,26.76
2023-04-05T11:34:33.826Z,26.51
2023-04-05T11:35:33.574Z,26.49
2023-04-05T11:36:35.688Z,26.67
2023-04-05T11:37:33.486Z,27.03
2023-04-05T11:38:34.785Z,27.30
2023-04-05T11:39:33.429Z,27.61
2023-04-05T11:40:33.458Z,27.83
2023-04-05T11:41:33.361Z,27.57
2023-04-05T11:42:33.370Z,27.29
2023-04-05T11:43:33.293Z,27.28
2023-04-05T11:44:33.289Z,27.61
2023-04-05T11:45:34.416Z,27.30
2023-04-05T11:46:33.259Z,27.29
2023-04-05T11:47:33.442Z,27.29
2023-04-05T11:48:33.131Z,27.19
2023-04-05T11:49:35.266Z,27.25
2023-04-05T11:50:35.325Z,27.26
2023-04-05T11:51:33.240Z,27.29
2023-04-05T11:52:33.008Z,26.70
2023-04-05T11:53:34.170Z,26.83
2023-04-05T11:54:32.938Z,27.00
2023-04-05T11:55:33.065Z,27.15
2023-04-05T11:56:32.907Z,27.33
2023-04-05T11:57:33.079Z,27.30
2023-04-05T11:58:32.809Z,27.57
2023-04-05T11:59:33.018Z,27.97
2023-04-05T12:00:32.747Z,27.55
2023-04-05T12:01:32.793Z,27.78
2023-04-05T12:02:34.015Z,28.12
2023-04-05T12:03:32.766Z,28.01
2023-04-05T12:04:32.638Z,28.15
2023-04-05T12:05:32.592Z,27.73
2023-04-05T12:06:32.727Z,27.72
2023-04-05T12:07:32.551Z,27.85
2023-04-05T12:08:32.513Z,27.57
2023-04-05T12:09:33.668Z,27.76
2023-04-05T12:10:32.425Z,27.81
2023-04-05T12:11:32.401Z,28.06
2023-04-05T12:12:33.537Z,28.10
2023-04-05T12:13:32.469Z,27.88
2023-04-05T12:14:32.305Z,27.47
2023-04-05T12:15:32.292Z,27.48
2023-04-05T12:16:33.345Z,27.45
2023-04-05T12:17:32.219Z,27.18
2023-04-05T12:18:32.303Z,27.05
2023-04-05T12:19:32.131Z,27.08
2023-04-05T12:20:33.236Z,27.34
2023-04-05T12:21:32.170Z,27.19
2023-04-05T12:22:32.130Z,27.18
2023-04-05T12:23:32.003Z,27.10
2023-04-05T12:24:32.142Z,27.43
2023-04-05T12:25:31.938Z,27.25
2023-04-05T12:26:32.159Z,27.07
2023-04-05T12:27:31.899Z,27.22
2023-04-05T12:28:33.193Z,27.35
2023-04-05T12:29:31.811Z,27.61
2023-04-05T12:30:31.981Z,27.71
2023-04-05T12:31:31.821Z,27.86
2023-04-05T12:32:31.895Z,27.94
2023-04-05T12:33:31.688Z,27.88
2023-04-05T12:34:31.811Z,27.75
2023-04-05T12:35:38.496Z,27.76
2023-04-05T12:36:32.746Z,27.55
2023-04-05T12:37:31.556Z,27.85
2023-04-05T12:38:31.632Z,28.46
2023-04-05T12:39:31.532Z,28.80
2023-04-05T12:40:32.796Z,29.24
2023-04-05T12:41:31.455Z,29.52
2023-04-05T12:42:31.558Z,29.79
2023-04-05T12:43:32.205Z,30.01
2023-04-05T12:44:52.767Z,30.18
2023-04-05T12:45:31.362Z,30.24
2023-04-05T12:46:31.401Z,30.27
2023-04-05T12:47:31.373Z,30.31
2023-04-05T12:48:31.293Z,30.14
2023-04-05T12:49:31.191Z,30.26
2023-04-05T12:50:31.348Z,30.14
2023-04-05T12:51:31.321Z,30.05
2023-04-05T12:52:31.099Z,30.21
2023-04-05T12:53:31.080Z,30.14
2023-04-05T12:54:31.240Z,30.21
2023-04-05T12:55:31.001Z,30.23
2023-04-05T12:56:31.031Z,30.36
2023-04-05T12:57:34.450Z,30.33
2023-04-05T12:58:30.907Z,30.52
2023-04-05T12:59:30.911Z,30.48
2023-04-05T13:00:30.880Z,30.29
2023-04-05T13:01:31.096Z,30.49
2023-04-05T13:02:30.866Z,30.46
2023-04-05T13:03:31.267Z,30.59
2023-04-05T13:04:30.720Z,29.98
2023-04-05T13:05:30.789Z,29.49
2023-04-05T13:06:30.976Z,29.42
2023-04-05T13:07:30.725Z,29.52
2023-04-05T13:08:30.621Z,29.61
2023-04-05T13:09:31.763Z,29.35
2023-04-05T13:10:30.539Z,29.03
2023-04-05T13:11:30.510Z,28.94